DAOB/TID METAR and TAF weather

Enter ICAO airport designator
Station Type Date Time Source
DAOB METAR 2022/01/29 13:00 UTC NOAA

DAOB 291300Z 07006KT CAVOK 13/// Q1032


Station Type Date Time Source
DAOB Decoded METAR 2022/01/29 13:00 UTC NOAA

Tiaret, Algeria (DAOB) 35-15N 001-26E 1127M
Jan 29, 2022 - 08:00 AM EST / 2022.01.29 1300 UTC
Wind: from the ENE (070 degrees) at 7 MPH (6 KT):0
Visibility: greater than 7 mile(s):0
Temperature: 55 F (13 C)
Pressure (altimeter): 30.47 in. Hg (1032 hPa)
ob: DAOB 291300Z 07006KT CAVOK 13/// Q1032
cycle: 13

Station Type Date Time Source
DAOB TAF 2022/01/29 12:30 UTC NOAA

TAF DAOB 291100Z 2912/3012 VRB02KT CAVOK

Example: see airport list